sensor_id;sensor_type;location;lat;lon;timestamp;pressure;altitude;pressure_sealevel;temperature;humidity
79129;BME280;68529;43.286;23.360;2023-06-19T00:02:17;99159.63;;;20.40;67.82
79129;BME280;68529;43.286;23.360;2023-06-19T00:04:42;99167.63;;;20.40;67.61
79129;BME280;68529;43.286;23.360;2023-06-19T00:07:08;99163.88;;;20.42;67.45
79129;BME280;68529;43.286;23.360;2023-06-19T00:09:33;99159.72;;;20.38;67.71
79129;BME280;68529;43.286;23.360;2023-06-19T00:11:58;99151.72;;;20.38;67.89
79129;BME280;68529;43.286;23.360;2023-06-19T00:14:25;99150.91;;;20.38;67.49
79129;BME280;68529;43.286;23.360;2023-06-19T00:16:51;99147.47;;;20.36;67.43
79129;BME280;68529;43.286;23.360;2023-06-19T00:19:16;99152.00;;;20.35;67.43
79129;BME280;68529;43.286;23.360;2023-06-19T00:21:42;99144.81;;;20.36;67.20
79129;BME280;68529;43.286;23.360;2023-06-19T00:24:08;99142.13;;;20.36;67.45
79129;BME280;68529;43.286;23.360;2023-06-19T00:26:34;99143.84;;;20.37;67.06
79129;BME280;68529;43.286;23.360;2023-06-19T00:28:59;99144.09;;;20.33;67.14
79129;BME280;68529;43.286;23.360;2023-06-19T00:31:25;99138.13;;;20.30;67.20
79129;BME280;68529;43.286;23.360;2023-06-19T00:33:52;99138.34;;;20.27;66.69
79129;BME280;68529;43.286;23.360;2023-06-19T00:36:18;99137.63;;;20.25;66.68
79129;BME280;68529;43.286;23.360;2023-06-19T00:38:48;99141.22;;;20.24;66.84
79129;BME280;68529;43.286;23.360;2023-06-19T00:41:15;99131.44;;;20.24;66.54
79129;BME280;68529;43.286;23.360;2023-06-19T00:43:42;99134.19;;;20.23;66.81
79129;BME280;68529;43.286;23.360;2023-06-19T00:46:07;99140.50;;;20.22;66.93
79129;BME280;68529;43.286;23.360;2023-06-19T00:48:34;99131.63;;;20.21;66.69
79129;BME280;68529;43.286;23.360;2023-06-19T00:51:00;99129.81;;;20.22;66.66
79129;BME280;68529;43.286;23.360;2023-06-19T00:53:25;99133.69;;;20.18;66.40
79129;BME280;68529;43.286;23.360;2023-06-19T00:55:53;99121.44;;;20.15;66.79
79129;BME280;68529;43.286;23.360;2023-06-19T00:58:20;99126.03;;;20.13;66.48
79129;BME280;68529;43.286;23.360;2023-06-19T01:00:45;99125.16;;;20.13;66.54
79129;BME280;68529;43.286;23.360;2023-06-19T01:03:11;99124.44;;;20.11;66.60
79129;BME280;68529;43.286;23.360;2023-06-19T01:05:36;99116.66;;;20.08;66.29
79129;BME280;68529;43.286;23.360;2023-06-19T01:10:54;99120.28;;;19.96;66.54
79129;BME280;68529;43.286;23.360;2023-06-19T01:15:48;99133.44;;;19.86;66.54
79129;BME280;68529;43.286;23.360;2023-06-19T01:18:15;99124.56;;;19.86;66.65
79129;BME280;68529;43.286;23.360;2023-06-19T01:20:41;99138.25;;;19.81;66.42
79129;BME280;68529;43.286;23.360;2023-06-19T01:23:11;99127.91;;;19.76;66.17
79129;BME280;68529;43.286;23.360;2023-06-19T01:25:37;99129.13;;;19.72;66.34
79129;BME280;68529;43.286;23.360;2023-06-19T01:28:07;99134.88;;;19.66;66.21
79129;BME280;68529;43.286;23.360;2023-06-19T01:30:35;99130.75;;;19.62;65.96
79129;BME280;68529;43.286;23.360;2023-06-19T01:33:20;99136.09;;;19.62;66.35
79129;BME280;68529;43.286;23.360;2023-06-19T01:35:49;99144.53;;;19.56;66.31
79129;BME280;68529;43.286;23.360;2023-06-19T01:38:16;99141.88;;;19.56;66.17
79129;BME280;68529;43.286;23.360;2023-06-19T01:40:42;99142.81;;;19.55;66.22
79129;BME280;68529;43.286;23.360;2023-06-19T01:43:08;99140.50;;;19.51;65.92
79129;BME280;68529;43.286;23.360;2023-06-19T01:45:34;99143.38;;;19.48;66.07
79129;BME280;68529;43.286;23.360;2023-06-19T01:48:00;99146.34;;;19.43;66.17
79129;BME280;68529;43.286;23.360;2023-06-19T01:50:26;99151.91;;;19.40;65.86
79129;BME280;68529;43.286;23.360;2023-06-19T01:52:51;99159.16;;;19.38;65.91
79129;BME280;68529;43.286;23.360;2023-06-19T01:55:17;99148.59;;;19.37;65.51
79129;BME280;68529;43.286;23.360;2023-06-19T01:57:43;99146.88;;;19.36;65.66
79129;BME280;68529;43.286;23.360;2023-06-19T02:00:11;99155.31;;;19.30;65.40
79129;BME280;68529;43.286;23.360;2023-06-19T02:02:37;99148.38;;;19.27;65.39
79129;BME280;68529;43.286;23.360;2023-06-19T02:05:02;99152.13;;;19.25;65.72
79129;BME280;68529;43.286;23.360;2023-06-19T02:07:28;99153.94;;;19.24;65.69
79129;BME280;68529;43.286;23.360;2023-06-19T02:09:53;99160.25;;;19.23;65.27
79129;BME280;68529;43.286;23.360;2023-06-19T02:12:19;99165.78;;;19.20;65.31
79129;BME280;68529;43.286;23.360;2023-06-19T02:14:44;99160.88;;;19.14;65.41
79129;BME280;68529;43.286;23.360;2023-06-19T02:17:10;99158.63;;;19.08;65.26
79129;BME280;68529;43.286;23.360;2023-06-19T02:19:36;99167.69;;;19.05;65.51
79129;BME280;68529;43.286;23.360;2023-06-19T02:22:01;99168.56;;;19.06;65.13
79129;BME280;68529;43.286;23.360;2023-06-19T02:24:27;99165.38;;;19.01;65.38
79129;BME280;68529;43.286;23.360;2023-06-19T02:26:52;99166.09;;;19.03;65.42
79129;BME280;68529;43.286;23.360;2023-06-19T02:29:17;99167.91;;;19.02;65.49
79129;BME280;68529;43.286;23.360;2023-06-19T02:31:44;99168.03;;;19.01;65.61
79129;BME280;68529;43.286;23.360;2023-06-19T02:34:09;99174.53;;;18.97;65.48
79129;BME280;68529;43.286;23.360;2023-06-19T02:36:35;99180.69;;;18.97;65.06
79129;BME280;68529;43.286;23.360;2023-06-19T02:39:01;99176.66;;;18.92;65.24
79129;BME280;68529;43.286;23.360;2023-06-19T02:41:27;99179.31;;;18.92;65.32
79129;BME280;68529;43.286;23.360;2023-06-19T02:43:52;99177.81;;;18.88;65.60
79129;BME280;68529;43.286;23.360;2023-06-19T02:46:18;99176.94;;;18.87;65.58
79129;BME280;68529;43.286;23.360;2023-06-19T02:48:43;99179.22;;;18.81;65.31
79129;BME280;68529;43.286;23.360;2023-06-19T02:51:09;99181.13;;;18.79;65.37
79129;BME280;68529;43.286;23.360;2023-06-19T02:53:34;99179.22;;;18.81;65.33
79129;BME280;68529;43.286;23.360;2023-06-19T02:55:59;99185.59;;;18.78;65.22
79129;BME280;68529;43.286;23.360;2023-06-19T02:58:25;99190.06;;;18.78;65.53
79129;BME280;68529;43.286;23.360;2023-06-19T03:00:52;99195.47;;;18.76;65.19
79129;BME280;68529;43.286;23.360;2023-06-19T03:03:17;99185.88;;;18.74;65.44
79129;BME280;68529;43.286;23.360;2023-06-19T03:05:43;99194.84;;;18.73;65.48
79129;BME280;68529;43.286;23.360;2023-06-19T03:08:08;99194.06;;;18.71;65.58
79129;BME280;68529;43.286;23.360;2023-06-19T03:10:34;99189.81;;;18.68;65.35
79129;BME280;68529;43.286;23.360;2023-06-19T03:12:59;99191.88;;;18.65;65.90
79129;BME280;68529;43.286;23.360;2023-06-19T03:15:25;99193.75;;;18.63;65.67
79129;BME280;68529;43.286;23.360;2023-06-19T03:17:52;99188.53;;;18.61;65.60
79129;BME280;68529;43.286;23.360;2023-06-19T03:20:18;99195.78;;;18.59;66.29
79129;BME280;68529;43.286;23.360;2023-06-19T03:22:43;99189.69;;;18.57;65.75
79129;BME280;68529;43.286;23.360;2023-06-19T03:25:09;99198.66;;;18.56;65.99
79129;BME280;68529;43.286;23.360;2023-06-19T03:27:35;99185.34;;;18.56;65.83
79129;BME280;68529;43.286;23.360;2023-06-19T03:30:02;99191.50;;;18.56;65.44
79129;BME280;68529;43.286;23.360;2023-06-19T03:32:31;99187.81;;;18.59;65.57
79129;BME280;68529;43.286;23.360;2023-06-19T03:34:57;99184.28;;;18.58;65.64
79129;BME280;68529;43.286;23.360;2023-06-19T03:37:22;99189.63;;;18.58;65.70
79129;BME280;68529;43.286;23.360;2023-06-19T03:39:47;99185.78;;;18.63;65.92
79129;BME280;68529;43.286;23.360;2023-06-19T03:42:13;99201.72;;;18.63;65.50
79129;BME280;68529;43.286;23.360;2023-06-19T03:44:38;99191.09;;;18.63;66.11
79129;BME280;68529;43.286;23.360;2023-06-19T03:47:05;99195.25;;;18.67;65.86
79129;BME280;68529;43.286;23.360;2023-06-19T03:49:31;99194.19;;;18.69;65.94
79129;BME280;68529;43.286;23.360;2023-06-19T03:51:56;99186.09;;;18.71;65.62
79129;BME280;68529;43.286;23.360;2023-06-19T03:54:21;99193.03;;;18.73;65.88
79129;BME280;68529;43.286;23.360;2023-06-19T03:56:47;99190.06;;;18.78;65.37
79129;BME280;68529;43.286;23.360;2023-06-19T03:59:12;99191.53;;;18.82;65.65
79129;BME280;68529;43.286;23.360;2023-06-19T04:01:38;99185.06;;;18.86;65.63
79129;BME280;68529;43.286;23.360;2023-06-19T04:04:03;99184.31;;;18.96;65.43
79129;BME280;68529;43.286;23.360;2023-06-19T04:06:28;99184.75;;;19.03;65.14
79129;BME280;68529;43.286;23.360;2023-06-19T04:08:54;99186.22;;;19.07;65.03
79129;BME280;68529;43.286;23.360;2023-06-19T04:11:19;99188.78;;;19.08;64.93
79129;BME280;68529;43.286;23.360;2023-06-19T04:13:46;99185.59;;;19.16;65.01
79129;BME280;68529;43.286;23.360;2023-06-19T04:16:11;99178.03;;;19.23;64.90
79129;BME280;68529;43.286;23.360;2023-06-19T04:18:37;99187.91;;;19.33;64.62
79129;BME280;68529;43.286;23.360;2023-06-19T04:21:02;99183.78;;;19.42;64.32
79129;BME280;68529;43.286;23.360;2023-06-19T04:23:27;99177.16;;;19.47;64.25
79129;BME280;68529;43.286;23.360;2023-06-19T04:25:53;99181.31;;;19.51;64.32
79129;BME280;68529;43.286;23.360;2023-06-19T04:28:18;99173.72;;;19.58;64.14
79129;BME280;68529;43.286;23.360;2023-06-19T04:30:44;99178.16;;;19.70;63.67
79129;BME280;68529;43.286;23.360;2023-06-19T04:33:09;99176.75;;;19.77;63.30
79129;BME280;68529;43.286;23.360;2023-06-19T04:35:34;99179.09;;;19.82;63.49
79129;BME280;68529;43.286;23.360;2023-06-19T04:38:06;99176.50;;;19.93;63.33
79129;BME280;68529;43.286;23.360;2023-06-19T04:40:31;99181.66;;;20.07;63.57
79129;BME280;68529;43.286;23.360;2023-06-19T04:42:57;99174.22;;;20.23;63.39
79129;BME280;68529;43.286;23.360;2023-06-19T04:45:23;99178.53;;;20.37;63.04
79129;BME280;68529;43.286;23.360;2023-06-19T04:47:48;99178.81;;;20.45;62.94
79129;BME280;68529;43.286;23.360;2023-06-19T04:50:14;99179.94;;;20.53;62.67
79129;BME280;68529;43.286;23.360;2023-06-19T04:52:40;99178.38;;;20.62;62.76
79129;BME280;68529;43.286;23.360;2023-06-19T04:55:07;99183.13;;;20.69;62.51
79129;BME280;68529;43.286;23.360;2023-06-19T04:57:35;99183.38;;;20.77;62.22
79129;BME280;68529;43.286;23.360;2023-06-19T05:00:05;99186.44;;;20.84;62.47
79129;BME280;68529;43.286;23.360;2023-06-19T05:02:32;99188.03;;;20.98;62.69
79129;BME280;68529;43.286;23.360;2023-06-19T05:04:58;99187.00;;;21.11;62.76
79129;BME280;68529;43.286;23.360;2023-06-19T05:07:29;99182.66;;;21.21;62.40
79129;BME280;68529;43.286;23.360;2023-06-19T05:09:54;99189.19;;;21.28;62.34
79129;BME280;68529;43.286;23.360;2023-06-19T05:12:20;99183.22;;;21.36;61.92
79129;BME280;68529;43.286;23.360;2023-06-19T05:14:45;99191.63;;;21.42;61.69
79129;BME280;68529;43.286;23.360;2023-06-19T05:17:10;99183.84;;;21.51;62.06
79129;BME280;68529;43.286;23.360;2023-06-19T05:19:36;99186.50;;;21.62;62.08
79129;BME280;68529;43.286;23.360;2023-06-19T05:22:02;99191.13;;;21.71;61.89
79129;BME280;68529;43.286;23.360;2023-06-19T05:24:27;99188.06;;;21.75;61.52
79129;BME280;68529;43.286;23.360;2023-06-19T05:26:52;99190.38;;;21.80;61.70
79129;BME280;68529;43.286;23.360;2023-06-19T05:29:18;99200.69;;;21.95;62.27
79129;BME280;68529;43.286;23.360;2023-06-19T05:31:44;99196.03;;;22.09;61.94
79129;BME280;68529;43.286;23.360;2023-06-19T05:34:10;99200.53;;;22.19;61.81
79129;BME280;68529;43.286;23.360;2023-06-19T05:36:35;99214.69;;;22.31;61.91
79129;BME280;68529;43.286;23.360;2023-06-19T05:39:00;99206.75;;;22.40;61.72
79129;BME280;68529;43.286;23.360;2023-06-19T05:41:26;99208.69;;;22.49;61.86
79129;BME280;68529;43.286;23.360;2023-06-19T05:43:51;99205.94;;;22.60;61.48
79129;BME280;68529;43.286;23.360;2023-06-19T05:46:17;99206.63;;;22.74;62.23
79129;BME280;68529;43.286;23.360;2023-06-19T05:48:42;99204.88;;;22.84;61.29
79129;BME280;68529;43.286;23.360;2023-06-19T05:51:07;99208.06;;;22.98;61.49
79129;BME280;68529;43.286;23.360;2023-06-19T05:53:33;99211.53;;;23.10;60.24
79129;BME280;68529;43.286;23.360;2023-06-19T05:55:58;99214.28;;;23.19;58.48
79129;BME280;68529;43.286;23.360;2023-06-19T05:58:24;99209.38;;;23.25;58.27
79129;BME280;68529;43.286;23.360;2023-06-19T06:00:51;99212.44;;;23.41;58.49
79129;BME280;68529;43.286;23.360;2023-06-19T06:03:22;99212.78;;;23.57;58.72
79129;BME280;68529;43.286;23.360;2023-06-19T06:05:48;99211.97;;;23.66;57.87
79129;BME280;68529;43.286;23.360;2023-06-19T06:08:14;99207.63;;;23.74;56.53
79129;BME280;68529;43.286;23.360;2023-06-19T06:10:40;99209.94;;;23.89;57.44
79129;BME280;68529;43.286;23.360;2023-06-19T06:13:05;99215.19;;;24.00;57.11
79129;BME280;68529;43.286;23.360;2023-06-19T06:15:31;99218.88;;;24.08;54.99
79129;BME280;68529;43.286;23.360;2023-06-19T06:17:56;99214.97;;;24.22;55.65
79129;BME280;68529;43.286;23.360;2023-06-19T06:20:21;99221.78;;;24.26;53.11
79129;BME280;68529;43.286;23.360;2023-06-19T06:22:47;99221.19;;;24.32;52.95
79129;BME280;68529;43.286;23.360;2023-06-19T06:25:12;99224.44;;;24.36;52.17
79129;BME280;68529;43.286;23.360;2023-06-19T06:27:38;99228.97;;;24.45;52.51
79129;BME280;68529;43.286;23.360;2023-06-19T06:30:04;99222.91;;;24.52;53.41
79129;BME280;68529;43.286;23.360;2023-06-19T06:32:29;99230.13;;;24.61;53.10
79129;BME280;68529;43.286;23.360;2023-06-19T06:34:56;99229.28;;;24.70;52.20
79129;BME280;68529;43.286;23.360;2023-06-19T06:37:22;99234.53;;;24.81;54.52
79129;BME280;68529;43.286;23.360;2023-06-19T06:39:50;99231.53;;;24.94;53.57
79129;BME280;68529;43.286;23.360;2023-06-19T06:42:16;99231.66;;;25.02;53.10
79129;BME280;68529;43.286;23.360;2023-06-19T06:44:42;99231.25;;;25.07;52.28
79129;BME280;68529;43.286;23.360;2023-06-19T06:47:08;99235.75;;;25.16;51.53
79129;BME280;68529;43.286;23.360;2023-06-19T06:49:33;99232.34;;;25.23;50.75
79129;BME280;68529;43.286;23.360;2023-06-19T06:51:58;99230.34;;;25.25;50.39
79129;BME280;68529;43.286;23.360;2023-06-19T06:54:24;99230.16;;;25.36;51.13
79129;BME280;68529;43.286;23.360;2023-06-19T06:56:50;99236.34;;;25.46;49.92
79129;BME280;68529;43.286;23.360;2023-06-19T06:59:17;99247.81;;;25.58;50.64
79129;BME280;68529;43.286;23.360;2023-06-19T07:01:42;99245.09;;;25.68;50.25
79129;BME280;68529;43.286;23.360;2023-06-19T07:04:08;99235.13;;;25.78;51.23
79129;BME280;68529;43.286;23.360;2023-06-19T07:06:33;99232.53;;;25.86;50.57
79129;BME280;68529;43.286;23.360;2023-06-19T07:08:59;99236.34;;;25.93;50.55
79129;BME280;68529;43.286;23.360;2023-06-19T07:11:24;99233.75;;;26.01;49.57
79129;BME280;68529;43.286;23.360;2023-06-19T07:13:49;99228.59;;;26.08;49.95
79129;BME280;68529;43.286;23.360;2023-06-19T07:16:15;99231.84;;;26.11;49.65
79129;BME280;68529;43.286;23.360;2023-06-19T07:18:40;99239.66;;;26.14;49.67
79129;BME280;68529;43.286;23.360;2023-06-19T07:21:11;99236.34;;;26.20;48.57
79129;BME280;68529;43.286;23.360;2023-06-19T07:23:40;99233.38;;;26.23;48.75
79129;BME280;68529;43.286;23.360;2023-06-19T07:26:06;99233.75;;;26.28;48.88
79129;BME280;68529;43.286;23.360;2023-06-19T07:28:31;99230.16;;;26.37;49.41
79129;BME280;68529;43.286;23.360;2023-06-19T07:30:57;99240.84;;;26.47;48.17
79129;BME280;68529;43.286;23.360;2023-06-19T07:33:22;99234.47;;;26.48;48.81
79129;BME280;68529;43.286;23.360;2023-06-19T07:35:48;99238.38;;;26.53;47.45
79129;BME280;68529;43.286;23.360;2023-06-19T07:38:13;99241.47;;;26.58;47.04
79129;BME280;68529;43.286;23.360;2023-06-19T07:40:38;99238.16;;;26.65;47.32
79129;BME280;68529;43.286;23.360;2023-06-19T07:43:05;99236.56;;;26.72;48.10
79129;BME280;68529;43.286;23.360;2023-06-19T07:45:30;99242.41;;;26.85;49.51
79129;BME280;68529;43.286;23.360;2023-06-19T07:47:56;99229.00;;;26.93;48.46
79129;BME280;68529;43.286;23.360;2023-06-19T07:50:22;99238.00;;;27.01;48.24
79129;BME280;68529;43.286;23.360;2023-06-19T07:52:48;99239.91;;;27.09;47.96
79129;BME280;68529;43.286;23.360;2023-06-19T07:55:13;99239.44;;;27.13;47.66
79129;BME280;68529;43.286;23.360;2023-06-19T07:57:38;99245.88;;;27.21;47.50
79129;BME280;68529;43.286;23.360;2023-06-19T08:00:04;99248.28;;;27.24;46.06
79129;BME280;68529;43.286;23.360;2023-06-19T08:02:36;99246.56;;;27.23;46.99
79129;BME280;68529;43.286;23.360;2023-06-19T08:05:02;99245.09;;;27.28;45.80
79129;BME280;68529;43.286;23.360;2023-06-19T08:07:28;99246.63;;;27.31;44.84
79129;BME280;68529;43.286;23.360;2023-06-19T08:16:58;99250.69;;;27.52;45.20
79129;BME280;68529;43.286;23.360;2023-06-19T08:19:24;99251.50;;;27.53;45.81
79129;BME280;68529;43.286;23.360;2023-06-19T08:21:49;99250.75;;;27.60;45.01
79129;BME280;68529;43.286;23.360;2023-06-19T08:24:15;99250.78;;;27.68;45.62
79129;BME280;68529;43.286;23.360;2023-06-19T08:26:40;99251.13;;;27.73;45.16
79129;BME280;68529;43.286;23.360;2023-06-19T08:29:05;99253.03;;;27.81;45.84
79129;BME280;68529;43.286;23.360;2023-06-19T08:31:31;99249.53;;;27.89;45.80
79129;BME280;68529;43.286;23.360;2023-06-19T08:33:56;99254.34;;;28.03;45.91
79129;BME280;68529;43.286;23.360;2023-06-19T08:36:22;99251.34;;;28.14;45.29
79129;BME280;68529;43.286;23.360;2023-06-19T08:38:48;99253.56;;;28.18;44.42
79129;BME280;68529;43.286;23.360;2023-06-19T09:29:41;99259.25;;;28.65;40.49
79129;BME280;68529;43.286;23.360;2023-06-19T09:32:23;99254.91;;;28.72;40.26
79129;BME280;68529;43.286;23.360;2023-06-19T09:34:50;99249.50;;;28.72;40.15
79129;BME280;68529;43.286;23.360;2023-06-19T09:37:22;99255.22;;;28.85;40.43
79129;BME280;68529;43.286;23.360;2023-06-19T09:39:53;99244.59;;;28.92;38.43
79129;BME280;68529;43.286;23.360;2023-06-19T09:42:22;99246.94;;;28.95;40.24
79129;BME280;68529;43.286;23.360;2023-06-19T09:44:51;99255.22;;;29.02;41.32
79129;BME280;68529;43.286;23.360;2023-06-19T09:47:25;99264.84;;;29.04;39.85
79129;BME280;68529;43.286;23.360;2023-06-19T09:49:55;99249.47;;;28.97;37.94
79129;BME280;68529;43.286;23.360;2023-06-19T09:52:22;99257.25;;;29.00;39.42
79129;BME280;68529;43.286;23.360;2023-06-19T09:54:52;99246.97;;;29.03;38.40
79129;BME280;68529;43.286;23.360;2023-06-19T09:57:19;99247.81;;;29.12;37.51
79129;BME280;68529;43.286;23.360;2023-06-19T09:59:50;99254.75;;;29.22;38.99
79129;BME280;68529;43.286;23.360;2023-06-19T10:02:18;99255.59;;;29.23;38.63
79129;BME280;68529;43.286;23.360;2023-06-19T10:04:51;99256.41;;;29.15;37.60
79129;BME280;68529;43.286;23.360;2023-06-19T10:07:21;99249.13;;;29.16;38.92
79129;BME280;68529;43.286;23.360;2023-06-19T10:10:03;99251.19;;;29.22;38.84
79129;BME280;68529;43.286;23.360;2023-06-19T10:15:32;99240.50;;;29.20;38.31
79129;BME280;68529;43.286;23.360;2023-06-19T10:18:01;99246.09;;;29.27;37.51
79129;BME280;68529;43.286;23.360;2023-06-19T10:20:32;99234.59;;;29.33;37.18
79129;BME280;68529;43.286;23.360;2023-06-19T10:25:40;99237.94;;;29.43;36.75
79129;BME280;68529;43.286;23.360;2023-06-19T10:30:42;99228.47;;;29.55;36.22
79129;BME280;68529;43.286;23.360;2023-06-19T10:33:08;99234.78;;;29.39;36.89
79129;BME280;68529;43.286;23.360;2023-06-19T10:35:40;99234.91;;;29.46;36.99
79129;BME280;68529;43.286;23.360;2023-06-19T10:38:08;99231.19;;;29.47;37.28
79129;BME280;68529;43.286;23.360;2023-06-19T10:40:37;99232.91;;;29.48;36.61
79129;BME280;68529;43.286;23.360;2023-06-19T10:43:03;99221.34;;;29.54;36.04
79129;BME280;68529;43.286;23.360;2023-06-19T10:45:29;99223.59;;;29.34;37.55
79129;BME280;68529;43.286;23.360;2023-06-19T10:47:55;99222.06;;;29.48;38.01
79129;BME280;68529;43.286;23.360;2023-06-19T10:50:21;99223.03;;;29.55;38.24
79129;BME280;68529;43.286;23.360;2023-06-19T10:52:48;99221.69;;;29.59;37.16
79129;BME280;68529;43.286;23.360;2023-06-19T10:55:17;99216.97;;;29.53;36.88
79129;BME280;68529;43.286;23.360;2023-06-19T10:57:47;99225.84;;;29.23;37.89
79129;BME280;68529;43.286;23.360;2023-06-19T11:00:23;99223.44;;;29.36;36.78
79129;BME280;68529;43.286;23.360;2023-06-19T11:02:49;99214.09;;;29.47;37.44
79129;BME280;68529;43.286;23.360;2023-06-19T11:05:14;99213.91;;;29.56;36.71
79129;BME280;68529;43.286;23.360;2023-06-19T11:07:40;99215.09;;;29.62;37.24
79129;BME280;68529;43.286;23.360;2023-06-19T11:10:06;99211.19;;;29.64;36.40
79129;BME280;68529;43.286;23.360;2023-06-19T11:12:32;99216.50;;;29.41;36.05
79129;BME280;68529;43.286;23.360;2023-06-19T11:15:04;99204.50;;;29.12;37.09
79129;BME280;68529;43.286;23.360;2023-06-19T11:17:31;99213.81;;;29.25;37.31
79129;BME280;68529;43.286;23.360;2023-06-19T11:19:57;99207.69;;;29.31;36.09
79129;BME280;68529;43.286;23.360;2023-06-19T11:22:35;99204.66;;;29.34;36.72
79129;BME280;68529;43.286;23.360;2023-06-19T11:25:05;99207.22;;;29.28;36.02
79129;BME280;68529;43.286;23.360;2023-06-19T11:27:31;99203.84;;;29.34;35.40
79129;BME280;68529;43.286;23.360;2023-06-19T11:29:58;99203.63;;;29.35;36.24
79129;BME280;68529;43.286;23.360;2023-06-19T11:32:24;99203.81;;;29.42;36.73
79129;BME280;68529;43.286;23.360;2023-06-19T11:34:56;99196.81;;;29.56;36.11
79129;BME280;68529;43.286;23.360;2023-06-19T11:37:21;99194.63;;;29.59;36.61
79129;BME280;68529;43.286;23.360;2023-06-19T11:39:48;99197.66;;;29.64;35.89
79129;BME280;68529;43.286;23.360;2023-06-19T11:42:14;99195.44;;;29.60;35.67
79129;BME280;68529;43.286;23.360;2023-06-19T11:45:02;99190.56;;;29.55;35.98
79129;BME280;68529;43.286;23.360;2023-06-19T11:47:30;99192.44;;;29.47;36.35
79129;BME280;68529;43.286;23.360;2023-06-19T11:49:57;99194.16;;;29.48;36.21
79129;BME280;68529;43.286;23.360;2023-06-19T11:52:22;99187.19;;;29.53;36.76
79129;BME280;68529;43.286;23.360;2023-06-19T11:54:48;99192.25;;;29.56;36.60
79129;BME280;68529;43.286;23.360;2023-06-19T11:57:13;99193.63;;;29.44;37.50
79129;BME280;68529;43.286;23.360;2023-06-19T11:59:40;99193.97;;;29.49;36.77
79129;BME280;68529;43.286;23.360;2023-06-19T12:02:06;99189.91;;;29.53;38.27
79129;BME280;68529;43.286;23.360;2023-06-19T12:04:31;99178.38;;;29.59;37.98
79129;BME280;68529;43.286;23.360;2023-06-19T12:06:57;99182.41;;;29.63;37.83
79129;BME280;68529;43.286;23.360;2023-06-19T12:09:22;99168.88;;;29.63;37.71
79129;BME280;68529;43.286;23.360;2023-06-19T12:11:48;99172.13;;;29.59;36.95
79129;BME280;68529;43.286;23.360;2023-06-19T12:14:13;99170.09;;;29.53;36.81
79129;BME280;68529;43.286;23.360;2023-06-19T12:16:38;99168.25;;;29.53;36.64
79129;BME280;68529;43.286;23.360;2023-06-19T12:19:04;99166.53;;;29.52;37.32
79129;BME280;68529;43.286;23.360;2023-06-19T12:21:29;99169.28;;;29.44;37.19
79129;BME280;68529;43.286;23.360;2023-06-19T12:23:55;99169.13;;;29.37;36.38
79129;BME280;68529;43.286;23.360;2023-06-19T12:26:20;99167.63;;;29.27;37.48
79129;BME280;68529;43.286;23.360;2023-06-19T12:28:46;99162.41;;;29.25;37.14
79129;BME280;68529;43.286;23.360;2023-06-19T12:31:11;99161.03;;;29.29;38.25
79129;BME280;68529;43.286;23.360;2023-06-19T12:50:12;99155.47;;;29.07;39.54
79129;BME280;68529;43.286;23.360;2023-06-19T12:52:37;99157.19;;;29.00;38.63
79129;BME280;68529;43.286;23.360;2023-06-19T12:55:03;99148.06;;;28.93;39.27
79129;BME280;68529;43.286;23.360;2023-06-19T12:57:29;99147.41;;;28.82;38.71
79129;BME280;68529;43.286;23.360;2023-06-19T12:59:54;99149.13;;;28.75;38.36
79129;BME280;68529;43.286;23.360;2023-06-19T13:02:19;99142.00;;;28.74;38.64
79129;BME280;68529;43.286;23.360;2023-06-19T13:04:45;99137.59;;;28.73;39.28
79129;BME280;68529;43.286;23.360;2023-06-19T13:07:10;99132.88;;;28.67;38.68
79129;BME280;68529;43.286;23.360;2023-06-19T13:09:35;99133.72;;;28.68;39.83
79129;BME280;68529;43.286;23.360;2023-06-19T13:12:02;99131.00;;;28.68;39.76
79129;BME280;68529;43.286;23.360;2023-06-19T13:14:27;99131.34;;;28.65;39.48
79129;BME280;68529;43.286;23.360;2023-06-19T13:16:53;99136.59;;;28.66;39.40
79129;BME280;68529;43.286;23.360;2023-06-19T13:19:18;99132.88;;;28.67;39.47
79129;BME280;68529;43.286;23.360;2023-06-19T13:21:44;99125.59;;;28.68;39.68
79129;BME280;68529;43.286;23.360;2023-06-19T13:24:10;99127.13;;;28.70;40.02
79129;BME280;68529;43.286;23.360;2023-06-19T13:26:36;99132.88;;;28.67;40.10
79129;BME280;68529;43.286;23.360;2023-06-19T13:29:01;99127.97;;;28.63;38.98
79129;BME280;68529;43.286;23.360;2023-06-19T13:31:27;99129.28;;;28.59;38.91
79129;BME280;68529;43.286;23.360;2023-06-19T13:33:53;99124.59;;;28.53;39.18
79129;BME280;68529;43.286;23.360;2023-06-19T13:36:18;99124.75;;;28.51;38.91
79129;BME280;68529;43.286;23.360;2023-06-19T13:38:45;99120.38;;;28.50;39.55
79129;BME280;68529;43.286;23.360;2023-06-19T13:41:12;99119.50;;;28.50;39.95
79129;BME280;68529;43.286;23.360;2023-06-19T13:43:37;99116.97;;;28.48;38.91
79129;BME280;68529;43.286;23.360;2023-06-19T13:46:05;99123.06;;;28.50;39.48
79129;BME280;68529;43.286;23.360;2023-06-19T13:48:31;99115.31;;;28.47;39.15
79129;BME280;68529;43.286;23.360;2023-06-19T13:50:57;99119.19;;;28.45;38.94
79129;BME280;68529;43.286;23.360;2023-06-19T13:53:24;99117.81;;;28.41;38.66
79129;BME280;68529;43.286;23.360;2023-06-19T13:55:50;99119.16;;;28.37;40.10
79129;BME280;68529;43.286;23.360;2023-06-19T13:58:15;99112.94;;;28.36;40.38
79129;BME280;68529;43.286;23.360;2023-06-19T14:00:41;99113.94;;;28.35;39.44
79129;BME280;68529;43.286;23.360;2023-06-19T14:03:06;99116.31;;;28.30;39.31
79129;BME280;68529;43.286;23.360;2023-06-19T14:05:32;99117.31;;;28.29;39.37
79129;BME280;68529;43.286;23.360;2023-06-19T14:07:58;99107.53;;;28.28;40.13
79129;BME280;68529;43.286;23.360;2023-06-19T14:10:24;99117.97;;;28.23;39.58
79129;BME280;68529;43.286;23.360;2023-06-19T14:12:49;99111.91;;;28.21;40.27